Time;durP1;ratioP1;P1;durP2;ratioP2;P2;SDS_P1;SDS_P2;PMS_P1;PMS_P2;Temp;Humidity;BMP_temperature;BMP_pressure;BME280_temperature;BME280_humidity;BME280_pressure;Samples;Min_cycle;Max_cycle;Signal;HPM_P1;HPM_P2
2022/01/05 00:01:20;;;;;;;11.43;3.73;;;;;;;11.55;66.29;98911.47;5358824;33;33951;-74
2022/01/05 00:04:22;;;;;;;8.73;3.45;;;;;;;11.39;67.00;98918.66;5366817;33;34611;-72
2022/01/05 00:07:27;;;;;;;11.80;4.03;;;;;;;11.44;66.88;98908.69;5335712;33;34928;-73
2022/01/05 00:10:29;;;;;;;9.63;3.93;;;;;;;11.35;67.09;98915.41;5354698;32;34414;-73
2022/01/05 00:13:31;;;;;;;10.23;4.77;;;;;;;11.10;68.21;98917.94;5360942;33;34367;-69
2022/01/05 00:16:34;;;;;;;11.03;4.27;;;;;;;11.15;68.26;98915.88;5361354;33;34784;-69
2022/01/05 00:19:36;;;;;;;9.93;4.00;;;;;;;11.16;68.23;98927.22;5373403;32;34139;-74
2022/01/05 00:22:39;;;;;;;8.65;4.30;;;;;;;10.99;68.87;98926.50;5363702;32;36209;-69
2022/01/05 00:25:41;;;;;;;11.20;4.43;;;;;;;11.23;68.24;98924.09;5366030;33;34171;-72
2022/01/05 00:28:44;;;;;;;12.37;5.00;;;;;;;11.24;67.80;98915.25;5359217;33;34162;-73
2022/01/05 00:31:46;;;;;;;12.17;5.20;;;;;;;11.44;67.30;98900.78;5365388;32;34276;-70
2022/01/05 00:34:48;;;;;;;11.97;5.60;;;;;;;11.52;66.72;98892.38;5373255;32;33086;-73
2022/01/05 00:37:51;;;;;;;13.73;5.83;;;;;;;11.05;68.20;98896.34;5360230;32;34107;-70
2022/01/05 00:40:53;;;;;;;13.23;6.60;;;;;;;11.37;67.79;98894.25;5363628;33;35128;-73
2022/01/05 00:43:55;;;;;;;12.20;5.90;;;;;;;11.42;66.79;98891.31;5366314;32;34090;-69
2022/01/05 00:46:57;;;;;;;12.13;5.83;;;;;;;11.09;68.09;98900.47;5372291;32;34730;-70
2022/01/05 00:50:00;;;;;;;13.17;6.27;;;;;;;10.87;69.21;98897.53;5359959;33;35500;-69
2022/01/05 00:53:02;;;;;;;12.53;6.17;;;;;;;10.72;69.82;98904.59;5373337;32;34573;-74
2022/01/05 00:56:04;;;;;;;11.30;5.33;;;;;;;10.46;70.98;98909.72;5361418;32;34165;-71
2022/01/05 00:59:07;;;;;;;11.57;5.40;;;;;;;10.59;70.45;98915.03;5366721;32;35274;-69
2022/01/05 01:02:09;;;;;;;11.07;5.37;;;;;;;10.81;69.70;98907.47;5365203;33;34201;-74
2022/01/05 01:05:13;;;;;;;14.30;6.27;;;;;;;10.87;69.36;98913.28;5359053;33;35292;-70
2022/01/05 01:08:15;;;;;;;10.97;5.27;;;;;;;11.03;68.68;98898.25;5366316;33;36806;-73
2022/01/05 01:11:17;;;;;;;10.77;5.03;;;;;;;10.68;70.38;98905.72;5366375;32;35252;-70
2022/01/05 01:14:19;;;;;;;11.07;5.27;;;;;;;10.53;69.88;98920.69;5368318;32;34132;-73
2022/01/05 01:17:22;;;;;;;11.90;5.13;;;;;;;11.04;68.66;98913.91;5360013;33;34017;-74
2022/01/05 01:20:24;;;;;;;12.33;5.07;;;;;;;10.53;71.21;98911.00;5358309;33;34276;-71
2022/01/05 01:23:27;;;;;;;12.37;5.13;;;;;;;10.17;72.13;98907.97;5361810;32;34506;-70
2022/01/05 01:26:30;;;;;;;11.40;5.45;;;;;;;10.50;71.05;98907.75;5366079;32;33806;-72
2022/01/05 01:29:33;;;;;;;10.68;5.32;;;;;;;11.17;67.87;98906.06;5363761;33;34857;-69
2022/01/05 01:32:38;;;;;;;12.30;5.67;;;;;;;10.69;68.41;98902.16;5358203;33;33980;-73
2022/01/05 01:35:40;;;;;;;11.57;5.57;;;;;;;11.16;67.56;98890.41;5360752;32;33218;-70
2022/01/05 01:38:43;;;;;;;12.83;5.57;;;;;;;10.85;69.07;98879.22;5355023;32;35292;-74
2022/01/05 01:41:45;;;;;;;13.40;5.33;;;;;;;10.54;70.61;98877.69;5366993;32;34062;-73
2022/01/05 01:44:47;;;;;;;10.87;5.13;;;;;;;10.83;69.41;98881.97;5365341;33;34516;-69
2022/01/05 01:47:49;;;;;;;11.40;5.60;;;;;;;11.32;66.83;98875.28;5358054;33;34162;-73
2022/01/05 01:50:52;;;;;;;10.30;5.47;;;;;;;11.23;67.24;98887.28;5360535;32;35334;-69
2022/01/05 01:53:54;;;;;;;12.87;5.80;;;;;;;10.19;70.60;98882.50;5358243;32;35103;-72
2022/01/05 01:56:59;;;;;;;11.47;5.43;;;;;;;10.60;70.10;98879.94;5370779;32;34392;-72
2022/01/05 02:00:04;;;;;;;12.67;5.77;;;;;;;11.29;66.54;98876.34;5362581;32;34406;-70
2022/01/05 02:03:07;;;;;;;13.63;5.80;;;;;;;11.46;65.52;98869.94;5368315;32;35561;-72
2022/01/05 02:06:09;;;;;;;12.10;6.10;;;;;;;11.59;64.64;98873.47;5361488;33;32942;-73
2022/01/05 02:09:11;;;;;;;13.27;6.00;;;;;;;11.08;66.56;98880.41;5362889;32;34165;-70
2022/01/05 02:12:13;;;;;;;12.60;5.67;;;;;;;11.21;66.32;98888.34;5365924;32;34383;-73
2022/01/05 02:15:16;;;;;;;12.77;5.17;;;;;;;11.21;66.49;98881.28;5358137;33;34010;-72
2022/01/05 02:21:32;;;;;;;12.37;5.50;;;;;;;11.43;65.02;98882.47;5358357;33;31902;-72
2022/01/05 02:24:34;;;;;;;13.97;5.77;;;;;;;11.51;64.55;98883.66;5357561;33;34662;-71
2022/01/05 02:27:41;;;;;;;11.40;5.67;;;;;;;11.44;64.71;98878.91;5363262;33;34675;-71
2022/01/05 02:30:43;;;;;;;11.53;5.37;;;;;;;10.98;66.04;98876.66;5357391;33;34296;-74
2022/01/05 02:33:45;;;;;;;13.97;5.30;;;;;;;11.24;65.45;98867.06;5362404;33;34154;-71
2022/01/05 02:36:47;;;;;;;13.43;5.07;;;;;;;10.97;66.45;98853.94;5351383;33;34506;-69
2022/01/05 02:39:49;;;;;;;11.57;5.03;;;;;;;10.90;67.05;98868.44;5372364;32;34091;-69
2022/01/05 02:42:54;;;;;;;11.17;4.77;;;;;;;10.51;68.22;98852.47;5370517;32;34870;-71
2022/01/05 02:45:56;;;;;;;12.03;5.40;;;;;;;10.30;69.01;98854.69;5357199;33;34674;-70
2022/01/05 02:48:59;;;;;;;12.07;5.17;;;;;;;9.21;73.75;98854.25;5375378;32;32739;-72
2022/01/05 02:52:02;;;;;;;14.00;5.72;;;;;;;8.99;76.59;98859.84;5374948;32;35152;-75
2022/01/05 02:55:05;;;;;;;10.40;4.90;;;;;;;9.88;73.08;98854.62;5364978;33;34305;-72
2022/01/05 02:58:07;;;;;;;9.68;4.68;;;;;;;10.67;69.15;98856.75;5360426;33;36333;-69
2022/01/05 03:01:09;;;;;;;11.67;4.60;;;;;;;11.10;66.97;98850.41;5367587;32;35422;-70
2022/01/05 03:04:11;;;;;;;10.70;4.60;;;;;;;11.09;66.64;98854.00;5365094;32;33888;-71
2022/01/05 03:07:15;;;;;;;9.37;4.50;;;;;;;11.35;65.38;98849.66;5372050;32;34016;-69
2022/01/05 03:10:18;;;;;;;9.33;4.40;;;;;;;11.30;64.98;98846.47;5370974;32;34418;-71
2022/01/05 03:13:23;;;;;;;10.68;4.65;;;;;;;11.22;65.23;98846.16;5370540;32;35653;-69
2022/01/05 03:16:25;;;;;;;10.80;4.70;;;;;;;11.23;65.23;98836.47;5363127;33;35140;-73
2022/01/05 03:19:27;;;;;;;11.77;4.70;;;;;;;11.11;65.54;98843.37;5360741;32;36745;-72
2022/01/05 03:22:30;;;;;;;11.77;4.90;;;;;;;11.32;64.56;98839.31;5367521;32;33832;-75
2022/01/05 03:25:32;;;;;;;11.83;5.30;;;;;;;11.18;65.30;98849.06;5382981;32;34752;-75
2022/01/05 03:28:34;;;;;;;12.57;5.20;;;;;;;10.84;66.37;98856.53;5368842;32;35297;-71
2022/01/05 03:31:36;;;;;;;11.53;5.50;;;;;;;10.51;68.76;98847.22;5363820;33;35339;-70
2022/01/05 03:34:39;;;;;;;10.17;4.63;;;;;;;10.85;67.37;98829.31;5356616;33;34118;-72
2022/01/05 03:37:41;;;;;;;9.50;4.20;;;;;;;11.20;65.76;98823.50;5350243;32;35399;-70
2022/01/05 03:40:45;;;;;;;9.63;3.87;;;;;;;11.04;66.71;98840.31;5363653;32;35774;-73
2022/01/05 03:43:48;;;;;;;9.80;3.60;;;;;;;10.94;67.23;98838.38;5367813;32;34733;-70
2022/01/05 03:46:51;;;;;;;7.43;3.43;;;;;;;10.76;67.72;98835.16;5363411;32;34055;-70
2022/01/05 03:49:53;;;;;;;5.70;2.90;;;;;;;10.61;68.30;98821.19;5358244;33;35192;-69
2022/01/05 03:52:55;;;;;;;7.67;3.07;;;;;;;10.73;67.67;98824.84;5366252;33;34129;-72
2022/01/05 03:55:57;;;;;;;7.57;3.67;;;;;;;10.61;67.96;98823.81;5358793;33;34017;-69
2022/01/05 03:58:59;;;;;;;5.60;2.60;;;;;;;10.51;68.63;98825.38;5374402;32;34239;-70
2022/01/05 04:02:02;;;;;;;7.80;2.90;;;;;;;10.54;68.08;98805.00;5362669;32;33973;-70
2022/01/05 04:05:05;;;;;;;8.07;3.23;;;;;;;10.66;67.93;98816.50;5361580;32;34090;-72
2022/01/05 04:08:07;;;;;;;7.23;3.43;;;;;;;10.56;68.14;98821.53;5353010;33;35134;-70
2022/01/05 04:11:09;;;;;;;8.33;3.40;;;;;;;10.57;68.27;98809.22;5361420;32;34826;-70
2022/01/05 04:14:12;;;;;;;5.93;2.87;;;;;;;10.64;67.98;98805.25;5369836;32;34156;-73
2022/01/05 04:17:15;;;;;;;8.73;3.30;;;;;;;10.78;67.31;98823.59;5360830;32;34824;-73
2022/01/05 04:20:18;;;;;;;8.23;3.47;;;;;;;10.70;67.59;98820.63;5357146;33;34562;-69
2022/01/05 04:23:20;;;;;;;5.57;2.97;;;;;;;10.96;66.97;98824.19;5362950;33;34237;-69
2022/01/05 04:26:22;;;;;;;5.50;2.67;;;;;;;11.03;66.19;98822.00;5359986;32;33621;-73
2022/01/05 04:29:25;;;;;;;6.25;2.75;;;;;;;10.99;66.44;98810.84;5367153;32;34222;-70
2022/01/05 04:32:27;;;;;;;7.77;3.20;;;;;;;11.05;66.25;98801.69;5362589;32;34227;-74
2022/01/05 04:35:49;;;;;;;8.63;3.43;;;;;;;11.20;65.63;98805.09;5360675;32;34518;-72
2022/01/05 04:38:51;;;;;;;6.27;2.90;;;;;;;11.26;65.35;98812.56;5359215;32;34220;-73
2022/01/05 04:41:53;;;;;;;6.07;3.10;;;;;;;11.38;64.87;98796.81;5358349;33;34386;-71
2022/01/05 04:44:56;;;;;;;6.10;2.70;;;;;;;11.51;64.32;98809.12;5376878;32;35254;-69
2022/01/05 04:47:58;;;;;;;8.33;3.20;;;;;;;11.10;65.59;98807.50;5359889;32;35074;-73
2022/01/05 04:51:00;;;;;;;7.70;2.83;;;;;;;10.95;66.44;98803.25;5365752;32;35090;-73
2022/01/05 04:54:03;;;;;;;7.20;3.40;;;;;;;10.90;66.65;98807.97;5359082;33;33963;-70
2022/01/05 04:57:07;;;;;;;7.43;3.30;;;;;;;11.10;65.91;98802.25;5364960;33;33957;-69
2022/01/05 05:00:10;;;;;;;7.43;3.20;;;;;;;11.04;66.00;98811.37;5374261;32;34673;-73
2022/01/05 05:03:12;;;;;;;6.77;3.30;;;;;;;10.83;66.80;98808.38;5362277;32;35204;-73
2022/01/05 05:06:15;;;;;;;5.57;2.90;;;;;;;10.93;66.30;98807.75;5366028;32;35036;-71
2022/01/05 05:09:17;;;;;;;8.67;3.50;;;;;;;10.88;66.32;98813.31;5361047;32;34189;-72
2022/01/05 05:12:20;;;;;;;7.07;2.90;;;;;;;11.08;65.67;98799.72;5366533;32;34590;-73
2022/01/05 05:15:22;;;;;;;8.13;3.30;;;;;;;11.06;65.41;98803.38;5355946;33;33226;-69
2022/01/05 05:18:24;;;;;;;9.00;3.37;;;;;;;10.99;65.94;98815.25;5365790;33;34670;-73
2022/01/05 05:21:26;;;;;;;9.70;3.97;;;;;;;11.20;65.02;98808.56;5359948;33;34333;-70
2022/01/05 05:24:28;;;;;;;8.63;4.17;;;;;;;10.86;66.40;98820.47;5359661;33;34862;-69
2022/01/05 05:27:30;;;;;;;10.43;4.53;;;;;;;10.81;66.86;98825.16;5364172;33;34898;-73
2022/01/05 05:30:36;;;;;;;11.73;4.87;;;;;;;10.93;66.33;98815.66;5351949;32;34308;-70
2022/01/05 05:33:39;;;;;;;12.67;4.60;;;;;;;10.87;66.61;98821.31;5355907;32;35974;-72
2022/01/05 05:36:41;;;;;;;11.37;4.83;;;;;;;10.97;66.04;98830.28;5335716;33;34499;-71
2022/01/05 05:39:44;;;;;;;9.90;4.13;;;;;;;11.33;64.54;98821.75;5360822;32;35246;-74
2022/01/05 05:42:46;;;;;;;10.75;4.93;;;;;;;11.34;64.26;98824.28;5368060;32;34889;-75
2022/01/05 05:45:48;;;;;;;12.37;4.77;;;;;;;11.17;65.00;98829.81;5369087;32;33862;-73
2022/01/05 05:48:51;;;;;;;9.57;4.27;;;;;;;11.10;65.32;98839.06;5352167;32;34244;-74
2022/01/05 05:51:53;;;;;;;9.30;4.67;;;;;;;11.30;64.02;98843.84;5359200;33;36017;-70
2022/01/05 05:54:57;;;;;;;10.57;4.97;;;;;;;11.17;64.80;98845.59;5373788;32;34713;-70
2022/01/05 05:58:15;;;;;;;13.23;5.07;;;;;;;11.26;63.99;98855.50;5329556;33;35117;-73
2022/01/05 06:01:18;;;;;;;13.63;5.47;;;;;;;10.55;67.28;98858.37;5367426;32;34099;-73
2022/01/05 06:04:20;;;;;;;10.25;5.03;;;;;;;10.83;66.14;98858.31;5359267;32;34261;-73
2022/01/05 06:07:23;;;;;;;10.27;4.63;;;;;;;11.68;62.39;98858.84;5369140;32;34568;-73
2022/01/05 06:10:25;;;;;;;13.03;5.50;;;;;;;11.75;61.65;98852.22;5364368;32;34253;-74
2022/01/05 06:13:28;;;;;;;12.77;6.00;;;;;;;11.20;63.50;98842.75;5359412;32;34726;-71
2022/01/05 06:16:30;;;;;;;13.13;5.37;;;;;;;10.80;65.54;98850.59;5369686;32;33923;-74
2022/01/05 06:19:33;;;;;;;13.67;5.67;;;;;;;11.05;64.62;98851.66;5358972;33;33970;-72
2022/01/05 06:22:38;;;;;;;10.27;5.07;;;;;;;11.34;63.77;98855.00;5357996;33;35691;-71
2022/01/05 06:25:40;;;;;;;10.50;4.33;;;;;;;11.46;63.32;98846.28;5363060;33;34187;-70
2022/01/05 06:28:43;;;;;;;11.55;5.70;;;;;;;11.39;63.17;98845.84;5364174;32;33368;-71
2022/01/05 06:31:46;;;;;;;9.60;4.80;;;;;;;11.49;62.65;98851.34;5367273;32;35364;-70
2022/01/05 06:34:48;;;;;;;10.73;5.00;;;;;;;11.49;62.38;98853.97;5353818;32;34056;-74
2022/01/05 06:37:51;;;;;;;11.50;5.43;;;;;;;12.00;60.54;98853.19;5329681;32;34034;-69
2022/01/05 06:40:56;;;;;;;12.03;4.90;;;;;;;12.00;60.32;98858.47;5345198;33;34185;-71
2022/01/05 06:43:59;;;;;;;12.33;4.50;;;;;;;11.15;63.13;98852.75;5356846;32;34000;-70
2022/01/05 06:47:05;;;;;;;14.23;5.57;;;;;;;11.66;62.17;98858.13;5360722;32;36386;-69
2022/01/05 06:50:09;;;;;;;9.97;5.00;;;;;;;11.79;61.31;98848.44;5353564;32;34785;-75
2022/01/05 06:53:11;;;;;;;;;;;;;;;11.53;62.12;98841.47;5374989;32;34260;-71
2022/01/05 06:56:15;;;;;;;11.03;4.73;;;;;;;11.17;62.68;98852.66;5348854;32;35424;-73
2022/01/05 06:59:17;;;;;;;;;;;;;;;11.53;62.50;98849.38;5353233;32;33856;-70
2022/01/05 07:02:19;;;;;;;11.23;4.77;;;;;;;11.21;63.25;98854.97;5355437;32;35667;-69
2022/01/05 07:05:22;;;;;;;10.93;4.70;;;;;;;11.77;61.80;98850.31;5333942;32;34205;-79
2022/01/05 07:08:25;;;;;;;11.63;4.57;;;;;;;11.22;64.22;98854.03;5352916;32;35241;-79
2022/01/05 07:11:28;;;;;;;;;;;;;;;11.48;63.36;98857.56;5352868;32;34812;-70
2022/01/05 07:14:30;;;;;;;13.53;5.43;;;;;;;11.45;63.34;98855.13;5360845;32;34169;-79
2022/01/05 07:17:33;;;;;;;11.95;4.80;;;;;;;11.95;61.56;98842.13;5346099;32;33908;-75
2022/01/05 07:20:36;;;;;;;12.73;5.25;;;;;;;12.22;60.38;98850.75;5370000;32;34907;-69
2022/01/05 07:23:38;;;;;;;13.33;5.60;;;;;;;12.12;60.30;98855.00;5364920;32;34909;-82
2022/01/05 07:26:40;;;;;;;10.40;5.07;;;;;;;12.13;60.43;98856.66;5360489;32;35234;-70
2022/01/05 07:29:43;;;;;;;11.50;5.37;;;;;;;11.96;60.97;98860.47;5367367;32;35133;-76
2022/01/05 07:32:45;;;;;;;12.07;5.80;;;;;;;11.74;61.65;98862.84;5337791;32;34454;-76
2022/01/05 07:35:48;;;;;;;13.75;5.85;;;;;;;11.93;61.53;98864.16;5363693;32;35043;-73
2022/01/05 07:38:52;;;;;;;11.55;5.35;;;;;;;11.34;62.98;98858.47;5346015;32;33986;-73
2022/01/05 07:41:55;;;;;;;13.50;5.55;;;;;;;11.41;63.13;98863.34;5354031;32;35591;-76
2022/01/05 07:44:57;;;;;;;12.45;6.10;;;;;;;11.91;61.45;98863.44;5368586;32;34917;-77
2022/01/05 07:48:00;;;;;;;11.35;5.65;;;;;;;11.99;61.21;98862.06;5359617;32;35468;-67
2022/01/05 07:51:02;;;;;;;13.93;5.67;;;;;;;12.61;59.04;98862.88;5359136;32;36178;-73
2022/01/05 07:54:05;;;;;;;13.57;5.75;;;;;;;12.69;58.76;98854.47;5335048;32;33099;-66
2022/01/05 07:57:08;;;;;;;9.85;5.03;;;;;;;12.63;58.93;98846.97;5359250;32;33959;-68
2022/01/05 08:00:13;;;;;;;10.53;4.97;;;;;;;12.33;58.96;98848.22;5348701;32;34800;-68
2022/01/05 08:03:16;;;;;;;14.17;6.60;;;;;;;12.69;58.44;98849.19;5354930;32;35583;-71
2022/01/05 08:06:38;;;;;;;11.65;6.07;;;;;;;12.48;59.30;98844.47;5346660;33;36268;-68
2022/01/05 08:09:40;;;;;;;11.10;5.23;;;;;;;12.81;58.29;98853.53;5351092;32;34136;-74
2022/01/05 08:12:43;;;;;;;14.40;6.03;;;;;;;12.85;58.05;98862.09;5356662;32;34113;-76
2022/01/05 08:15:46;;;;;;;15.45;5.50;;;;;;;12.61;59.08;98859.41;5356713;32;33938;-74
2022/01/05 08:18:49;;;;;;;15.67;6.50;;;;;;;12.71;58.42;98866.56;5353991;32;33671;-75
2022/01/05 08:21:51;;;;;;;14.43;6.85;;;;;;;12.46;59.48;98880.63;5345053;32;34187;-74
2022/01/05 08:24:53;;;;;;;14.50;6.32;;;;;;;12.19;60.92;98874.69;5345622;32;35424;-78
2022/01/05 08:27:56;;;;;;;12.23;5.77;;;;;;;12.61;59.73;98877.84;5352505;32;34128;-70
2022/01/05 08:30:59;;;;;;;11.43;5.95;;;;;;;13.00;57.97;98872.34;5340005;33;34398;-72
2022/01/05 08:34:02;;;;;;;10.68;5.62;;;;;;;13.00;57.87;98869.72;5342616;32;35965;-73
2022/01/05 08:37:04;;;;;;;14.30;6.30;;;;;;;13.33;56.88;98857.69;5346969;32;33978;-76
2022/01/05 08:40:09;;;;;;;15.70;6.07;;;;;;;12.71;59.21;98879.75;5349337;32;35139;-71
2022/01/05 08:43:13;;;;;;;13.20;6.77;;;;;;;13.17;57.62;98876.41;5336430;32;34144;-74
2022/01/05 08:46:15;;;;;;;13.97;6.73;;;;;;;13.04;58.00;98878.25;5352902;32;33899;-70
2022/01/05 08:49:19;;;;;;;15.27;7.07;;;;;;;13.14;57.69;98876.62;5342840;32;34044;-74
2022/01/05 08:52:22;;;;;;;15.00;6.53;;;;;;;13.21;57.31;98863.88;5344722;32;33795;-79
2022/01/05 08:55:29;;;;;;;12.37;7.00;;;;;;;13.18;57.48;98864.87;5337923;32;34104;-69
2022/01/05 08:58:31;;;;;;;18.40;7.70;;;;;;;13.34;56.99;98867.28;5343236;32;36501;-73
2022/01/05 09:01:33;;;;;;;18.27;7.47;;;;;;;13.21;57.46;98877.06;5346175;32;36564;-87
2022/01/05 09:04:36;;;;;;;17.50;7.37;;;;;;;13.15;57.77;98861.66;5351729;32;34378;-74
2022/01/05 09:07:40;;;;;;;14.57;6.87;;;;;;;13.35;57.47;98873.41;5346802;32;34239;-81
2022/01/05 09:10:43;;;;;;;14.63;7.53;;;;;;;13.42;57.41;98878.09;5343217;33;35789;-72
2022/01/05 09:13:45;;;;;;;14.65;7.18;;;;;;;13.16;58.07;98884.44;5347252;32;34271;-71
2022/01/05 09:16:49;;;;;;;17.03;8.37;;;;;;;13.55;57.21;98888.56;5342836;32;34802;-78
2022/01/05 09:19:52;;;;;;;25.10;7.90;;;;;;;13.37;57.96;98890.78;5314608;33;34580;-78
2022/01/05 09:22:55;;;;;;;46.60;9.57;;;;;;;12.90;59.41;98896.87;5355404;32;34202;-74
2022/01/05 09:25:58;;;;;;;51.47;11.43;;;;;;;12.96;59.29;98899.06;5356453;32;33846;-77
2022/01/05 09:29:00;;;;;;;34.23;8.53;;;;;;;12.52;60.70;98902.25;5355024;32;34184;-70
2022/01/05 09:32:06;;;;;;;24.65;8.70;;;;;;;12.24;62.48;98909.44;5359766;32;34526;-75
2022/01/05 09:35:15;;;;;;;25.47;7.23;;;;;;;12.72;61.27;98909.56;5339449;32;35131;-72
2022/01/05 09:38:36;;;;;;;23.97;7.17;;;;;;;13.96;56.65;98917.13;5344729;32;214723;-69
2022/01/05 09:45:15;;;;;;;8.53;3.33;;;;;;;12.23;62.25;98925.34;5350337;32;34049;-69
2022/01/05 09:48:46;;;;;;;9.70;3.90;;;;;;;12.15;62.42;98928.50;5360570;32;34126;-76
2022/01/05 09:51:51;;;;;;;6.83;2.70;;;;;;;12.84;60.27;98927.16;5362628;32;34685;-75
2022/01/05 09:54:54;;;;;;;9.07;2.53;;;;;;;12.82;59.07;98936.97;5363334;32;34313;-77
2022/01/05 09:57:56;;;;;;;9.32;3.17;;;;;;;12.36;61.22;98926.16;5357154;32;34907;-75
2022/01/05 10:00:59;;;;;;;8.40;3.17;;;;;;;12.93;59.32;98926.50;5363618;32;32422;-79
2022/01/05 10:04:03;;;;;;;8.02;2.85;;;;;;;12.89;59.75;98914.50;5349430;32;34051;-67
2022/01/05 10:07:11;;;;;;;17.37;8.83;;;;;;;12.43;60.56;98915.12;5353239;32;34191;-71
2022/01/05 10:10:14;;;;;;;9.67;3.40;;;;;;;12.34;61.42;98913.13;5360455;32;35033;-70
2022/01/05 10:13:16;;;;;;;18.97;4.00;;;;;;;12.33;61.85;98921.13;5337152;32;35336;-71
2022/01/05 10:16:18;;;;;;;8.13;4.03;;;;;;;12.74;60.71;98920.84;5360192;32;34096;-67
2022/01/05 10:19:21;;;;;;;15.40;4.47;;;;;;;13.07;59.76;98927.28;5349509;32;34189;-65
2022/01/05 10:22:34;;;;;;;8.40;4.35;;;;;;;12.91;60.32;98923.12;5348413;32;34778;-75
2022/01/05 10:25:37;;;;;;;10.87;4.40;;;;;;;12.81;60.22;98921.25;5354275;32;34853;-68
2022/01/05 10:28:43;;;;;;;8.97;3.77;;;;;;;12.74;60.53;98919.03;5353996;32;35261;-77
2022/01/05 10:31:52;;;;;;;6.53;3.30;;;;;;;13.23;58.67;98920.00;5345757;32;33906;-74
2022/01/05 10:35:25;;;;;;;6.17;3.10;;;;;;;12.96;59.64;98915.75;5357988;32;35619;-86
2022/01/05 10:38:28;;;;;;;7.37;3.00;;;;;;;13.01;59.04;98924.16;5355042;32;34400;-78
2022/01/05 10:41:33;;;;;;;11.02;4.40;;;;;;;12.69;60.31;98936.16;5361961;32;33983;-80
2022/01/05 10:44:36;;;;;;;12.03;3.70;;;;;;;12.70;59.40;98919.41;5359018;32;35968;-76
2022/01/05 10:47:38;;;;;;;6.72;2.45;;;;;;;11.91;62.61;98916.09;5349093;32;34162;-68
2022/01/05 10:50:42;;;;;;;4.70;1.80;;;;;;;11.99;61.95;98922.62;5350600;33;34082;-76
2022/01/05 10:53:44;;;;;;;4.40;1.70;;;;;;;11.46;63.20;98937.50;5359236;32;33963;-69
2022/01/05 10:56:47;;;;;;;3.10;1.42;;;;;;;11.05;64.23;98954.19;5332587;32;34760;-74
2022/01/05 10:59:53;;;;;;;3.67;1.45;;;;;;;10.43;66.36;98953.69;5356702;32;35155;-68
2022/01/05 11:02:55;;;;;;;3.43;2.07;;;;;;;10.52;66.14;98954.00;5358556;32;33889;-75
2022/01/05 11:06:07;;;;;;;1.60;1.00;;;;;;;10.70;64.61;98972.19;5326880;32;34115;-74
2022/01/05 11:09:11;;;;;;;2.77;1.50;;;;;;;10.26;66.81;98973.97;5335117;32;34285;-83
2022/01/05 11:12:15;;;;;;;1.27;1.17;;;;;;;10.43;67.34;98969.44;5361022;32;35037;-74
2022/01/05 11:24:53;;;;;;;3.00;1.30;;;;;;;10.65;67.38;98990.88;5259040;33;32784;-86
2022/01/05 11:44:26;;;;;;;3.23;1.10;;;;;;;10.80;66.20;99015.34;5315176;33;34944;-75
2022/01/05 12:16:57;;;;;;;8.33;3.40;;;;;;;9.86;70.52;99050.72;5353536;32;34986;-77
2022/01/05 13:19:53;;;;;;;;;;;;;;;;;;;;;
2022/01/05 13:39:48;;;;;;;3.10;1.70;;;;;;;9.40;65.34;99130.19;5383824;32;35725;-72
2022/01/05 14:03:24;;;;;;;4.10;1.80;;;;;;;8.70;68.46;99162.72;5466627;27;34368;-89
2022/01/05 14:18:51;;;;;;;5.93;2.00;;;;;;;9.22;66.90;99170.50;5248991;33;34449;-82
2022/01/05 14:31:39;;;;;;;;;;;;;;;;;;;;;
2022/01/05 14:35:45;;;;;;;6.67;3.27;;;;;;;8.70;70.94;99190.69;5246520;33;33914;-76
2022/01/05 15:19:02;;;;;;;5.67;2.00;;;;;;;9.08;67.79;99243.75;5399972;32;35006;-77
2022/01/05 15:22:28;;;;;;;4.00;2.23;;;;;;;9.31;67.91;99271.41;5346290;33;35527;-75
2022/01/05 15:25:31;;;;;;;4.10;2.00;;;;;;;9.10;67.78;99296.97;5360240;32;33851;-83
2022/01/05 15:28:35;;;;;;;4.70;2.08;;;;;;;8.74;70.14;99304.88;5393626;32;33456;-77
2022/01/05 15:31:38;;;;;;;3.83;1.70;;;;;;;9.45;68.39;99300.41;5403318;32;34721;-69
2022/01/05 15:34:45;;;;;;;3.67;1.77;;;;;;;9.36;67.52;99293.03;5381398;32;33492;-69
2022/01/05 15:37:47;;;;;;;6.97;3.20;;;;;;;9.00;68.86;99304.44;5372046;32;34262;-69
2022/01/05 15:40:51;;;;;;;4.13;1.70;;;;;;;8.75;69.90;99296.06;5376360;32;34834;-82
2022/01/05 15:43:54;;;;;;;2.53;1.70;;;;;;;8.25;71.64;99274.00;5408203;32;34610;-82
2022/01/05 15:46:57;;;;;;;2.23;1.63;;;;;;;9.34;67.21;99289.59;5404442;32;34336;-82
2022/01/05 15:49:59;;;;;;;4.77;2.27;;;;;;;9.20;66.33;99292.94;5407168;32;34796;-81
2022/01/05 15:53:03;;;;;;;3.13;1.80;;;;;;;9.17;66.80;99290.47;5402505;32;34063;-82
2022/01/05 16:02:28;;;;;;;4.17;2.00;;;;;;;8.43;69.53;99282.75;5392220;32;34261;-71
2022/01/05 16:05:31;;;;;;;3.47;1.83;;;;;;;9.02;67.98;99299.97;5400280;32;34338;-70
2022/01/05 16:08:33;;;;;;;3.10;1.80;;;;;;;8.87;67.36;99300.72;5388225;32;34098;-81
2022/01/05 16:11:38;;;;;;;2.57;1.60;;;;;;;8.72;67.05;99289.22;5395043;32;36156;-71
2022/01/05 16:14:40;;;;;;;4.00;1.97;;;;;;;8.92;67.25;99317.91;5389426;32;34119;-71
2022/01/05 16:17:44;;;;;;;4.17;1.90;;;;;;;8.50;66.94;99319.97;5403984;32;34442;-71
2022/01/05 16:20:46;;;;;;;4.07;1.87;;;;;;;8.39;68.18;99321.34;5412554;32;34060;-81
2022/01/05 16:23:49;;;;;;;2.95;1.73;;;;;;;8.71;67.45;99305.88;5393467;32;34000;-81
2022/01/05 16:26:52;;;;;;;3.47;1.73;;;;;;;9.33;64.35;99306.28;5400154;32;35257;-79
2022/01/05 16:29:54;;;;;;;3.80;1.90;;;;;;;8.67;65.97;99297.31;5402223;32;34107;-70
2022/01/05 16:32:57;;;;;;;5.03;2.00;;;;;;;8.77;66.30;99282.00;5382764;32;32464;-76
2022/01/05 16:36:08;;;;;;;3.47;1.80;;;;;;;9.17;65.07;99275.59;5402650;32;34302;-81
2022/01/05 16:39:16;;;;;;;3.90;1.73;;;;;;;9.32;63.86;99283.59;5412214;32;34128;-82
2022/01/05 16:42:18;;;;;;;3.80;1.90;;;;;;;9.04;63.97;99287.63;5398029;32;35219;-78
2022/01/05 16:45:21;;;;;;;3.22;1.70;;;;;;;8.63;65.21;99297.50;5411005;32;34633;-71
2022/01/05 16:48:24;;;;;;;4.33;1.83;;;;;;;8.34;66.99;99294.50;5408893;32;34008;-78
2022/01/05 16:51:29;;;;;;;3.58;1.98;;;;;;;9.53;62.06;99297.38;5395091;32;34773;-70
2022/01/05 16:54:36;;;;;;;4.63;2.10;;;;;;;9.60;61.70;99306.66;5412271;32;35923;-70
2022/01/05 17:01:00;;;;;;;4.17;1.83;;;;;;;8.98;62.94;99316.75;5411870;32;35002;-69
2022/01/05 17:04:03;;;;;;;3.23;1.90;;;;;;;9.39;60.87;99305.97;5390047;32;34517;-77
2022/01/05 17:07:05;;;;;;;3.33;1.77;;;;;;;8.34;65.35;99298.88;5387195;32;34407;-77
2022/01/05 17:10:08;;;;;;;4.80;2.23;;;;;;;9.10;61.73;99310.06;5393612;32;34548;-77
2022/01/05 17:13:15;;;;;;;4.00;1.90;;;;;;;9.11;61.86;99343.22;5401566;32;34603;-78
2022/01/05 17:16:18;;;;;;;5.37;1.80;;;;;;;9.33;61.38;99358.72;5396471;32;34537;-70
2022/01/05 17:19:20;;;;;;;4.47;2.00;;;;;;;9.06;61.79;99358.31;5413245;32;34304;-70
2022/01/05 17:22:23;;;;;;;4.47;1.80;;;;;;;8.57;63.69;99365.94;5397916;32;35323;-79
2022/01/05 17:25:25;;;;;;;3.17;1.50;;;;;;;8.92;61.62;99365.09;5395056;32;35257;-77
2022/01/05 17:28:27;;;;;;;3.30;1.50;;;;;;;8.74;61.86;99376.44;5421972;32;34452;-78
2022/01/05 17:31:30;;;;;;;4.27;1.70;;;;;;;8.95;60.40;99385.03;5397583;32;34180;-76
2022/01/05 17:34:32;;;;;;;3.77;1.60;;;;;;;8.46;63.22;99392.63;5399684;32;34084;-72
2022/01/05 17:37:35;;;;;;;3.63;1.87;;;;;;;8.80;62.19;99402.34;5407065;32;34706;-70
2022/01/05 17:40:38;;;;;;;4.57;1.50;;;;;;;9.20;60.19;99400.44;5409821;32;36541;-72
2022/01/05 17:43:40;;;;;;;3.75;1.67;;;;;;;8.74;60.55;99402.62;5409188;32;34492;-73
2022/01/05 17:46:43;;;;;;;2.40;1.43;;;;;;;8.34;62.89;99393.13;5397838;32;34012;-76
2022/01/05 17:49:45;;;;;;;3.50;1.70;;;;;;;9.11;60.33;99374.69;5397219;32;34745;-75
2022/01/05 17:52:48;;;;;;;3.20;1.73;;;;;;;8.89;60.55;99380.97;5407935;32;34080;-72
2022/01/05 17:55:52;;;;;;;3.22;1.40;;;;;;;8.47;63.44;99385.59;5380963;32;34423;-72
2022/01/05 17:58:54;;;;;;;4.37;2.00;;;;;;;9.38;59.32;99383.78;5398368;32;34185;-75
2022/01/05 18:02:00;;;;;;;1.95;1.25;;;;;;;8.67;61.81;99391.59;5398670;32;33945;-72
2022/01/05 18:05:03;;;;;;;2.27;1.30;;;;;;;9.02;59.26;99386.47;5413103;32;36573;-75
2022/01/05 18:08:07;;;;;;;2.20;1.48;;;;;;;9.20;58.53;99369.81;5403637;32;36596;-75
2022/01/05 18:11:10;;;;;;;2.60;1.52;;;;;;;9.06;58.22;99364.41;5397143;32;34307;-72
2022/01/05 18:14:12;;;;;;;2.67;1.47;;;;;;;9.24;58.79;99370.53;5402461;32;35176;-76
2022/01/05 18:17:14;;;;;;;4.13;1.63;;;;;;;8.41;59.90;99386.72;5412489;32;34938;-71